createdAt,value
2023-03-24T00:00:14.559Z,-89
2023-03-24T00:02:42.809Z,-89
2023-03-24T00:05:12.129Z,-87
2023-03-24T00:07:39.923Z,-88
2023-03-24T00:10:13.411Z,-87
2023-03-24T00:12:40.108Z,-86
2023-03-24T00:15:08.795Z,-88
2023-03-24T00:17:36.989Z,-88
2023-03-24T00:20:16.237Z,-88
2023-03-24T00:22:48.750Z,-88
2023-03-24T00:25:19.505Z,-88
2023-03-24T00:27:49.086Z,-87
2023-03-24T00:30:17.768Z,-90
2023-03-24T00:32:46.464Z,-88
2023-03-24T00:35:16.810Z,-89
2023-03-24T00:37:45.102Z,-88
2023-03-24T00:40:17.665Z,-87
2023-03-24T00:42:46.927Z,-89
2023-03-24T00:45:18.365Z,-91
2023-03-24T00:47:45.323Z,-91
2023-03-24T00:50:16.060Z,-89
2023-03-24T00:52:44.464Z,-89
2023-03-24T00:55:16.183Z,-90
2023-03-24T00:57:51.289Z,-89
2023-03-24T01:00:24.613Z,-88
2023-03-24T01:02:54.144Z,-89
2023-03-24T01:05:28.540Z,-90
2023-03-24T01:08:03.315Z,-89
2023-03-24T01:10:50.904Z,-88
2023-03-24T01:13:19.086Z,-89
2023-03-24T01:15:45.901Z,-89
2023-03-24T01:18:14.939Z,-89
2023-03-24T01:20:46.868Z,-90
2023-03-24T01:23:16.533Z,-89
2023-03-24T01:25:45.624Z,-88
2023-03-24T01:28:13.837Z,-89
2023-03-24T01:30:40.893Z,-90
2023-03-24T01:33:07.923Z,-89
2023-03-24T01:35:35.230Z,-88
2023-03-24T01:38:06.624Z,-87
2023-03-24T01:40:35.428Z,-87
2023-03-24T01:43:02.202Z,-86
2023-03-24T01:46:03.553Z,-88
2023-03-24T01:49:01.793Z,-86
2023-03-24T01:51:40.137Z,-89
2023-03-24T01:54:41.086Z,-88
2023-03-24T01:57:16.965Z,-90
2023-03-24T01:59:48.930Z,-89
2023-03-24T02:02:17.185Z,-88
2023-03-24T02:04:48.579Z,-87
2023-03-24T02:07:38.517Z,-87
2023-03-24T02:10:13.482Z,-89
2023-03-24T02:15:10.445Z,-87
2023-03-24T02:17:58.416Z,-86
2023-03-24T02:20:37.391Z,-86
2023-03-24T02:23:45.545Z,-86
2023-03-24T02:26:26.810Z,-85
2023-03-24T02:29:28.169Z,-87
2023-03-24T02:32:27.440Z,-87
2023-03-24T02:35:21.573Z,-88
2023-03-24T02:38:22.963Z,-86
2023-03-24T02:41:20.664Z,-86
2023-03-24T02:43:58.533Z,-86
2023-03-24T02:46:30.095Z,-86
2023-03-24T02:49:02.700Z,-87
2023-03-24T02:51:45.563Z,-87
2023-03-24T02:54:29.429Z,-87
2023-03-24T02:57:05.126Z,-86
2023-03-24T02:59:47.916Z,-87
2023-03-24T03:02:18.742Z,-87
2023-03-24T03:04:50.259Z,-88
2023-03-24T03:07:22.075Z,-88
2023-03-24T03:10:02.847Z,-88
2023-03-24T03:12:34.602Z,-89
2023-03-24T03:15:06.367Z,-87
2023-03-24T03:17:41.577Z,-87
2023-03-24T03:20:15.536Z,-87
2023-03-24T03:22:50.357Z,-87
2023-03-24T03:25:23.573Z,-87
2023-03-24T03:27:53.684Z,-86
2023-03-24T03:30:30.288Z,-88
2023-03-24T03:33:04.269Z,-88
2023-03-24T03:35:37.111Z,-87
2023-03-24T03:38:15.823Z,-87
2023-03-24T03:40:51.575Z,-88
2023-03-24T03:43:19.027Z,-88
2023-03-24T03:45:46.428Z,-87
2023-03-24T03:48:13.992Z,-87
2023-03-24T03:50:40.772Z,-89
2023-03-24T03:53:08.580Z,-88
2023-03-24T03:55:36.262Z,-87
2023-03-24T03:58:04.546Z,-86
2023-03-24T04:00:32.023Z,-86
2023-03-24T04:03:30.389Z,-87
2023-03-24T04:06:25.439Z,-85
2023-03-24T04:09:02.145Z,-86
2023-03-24T04:11:42.597Z,-85
2023-03-24T04:14:21.644Z,-85
2023-03-24T04:16:51.187Z,-87
2023-03-24T04:19:32.627Z,-87
2023-03-24T04:22:24.381Z,-86
2023-03-24T04:24:51.174Z,-88
2023-03-24T04:27:57.269Z,-85
2023-03-24T04:30:33.125Z,-85
2023-03-24T04:33:30.455Z,-88
2023-03-24T04:36:19.279Z,-88
2023-03-24T04:38:50.594Z,-88
2023-03-24T04:41:20.601Z,-87
2023-03-24T04:43:50.741Z,-86
2023-03-24T04:46:21.135Z,-85
2023-03-24T04:48:51.071Z,-86
2023-03-24T04:51:19.686Z,-87
2023-03-24T04:53:46.924Z,-87
2023-03-24T04:56:36.508Z,-87
2023-03-24T04:59:03.284Z,-87
2023-03-24T05:01:30.550Z,-89
2023-03-24T05:03:58.809Z,-86
2023-03-24T05:06:26.422Z,-85
2023-03-24T05:08:57.845Z,-89
2023-03-24T05:11:25.399Z,-88
2023-03-24T05:13:52.409Z,-87
2023-03-24T05:16:19.098Z,-88
2023-03-24T05:18:45.743Z,-86
2023-03-24T05:21:15.601Z,-86
2023-03-24T05:23:42.245Z,-86
2023-03-24T05:26:09.354Z,-87
2023-03-24T05:28:36.432Z,-89
2023-03-24T05:31:03.354Z,-85
2023-03-24T05:33:30.214Z,-86
2023-03-24T05:35:57.102Z,-87
2023-03-24T05:38:23.906Z,-88
2023-03-24T05:40:50.739Z,-87
2023-03-24T05:43:17.384Z,-86
2023-03-24T05:45:44.274Z,-86
2023-03-24T05:48:11.177Z,-87
2023-03-24T05:50:38.080Z,-87
2023-03-24T05:53:04.724Z,-86
2023-03-24T05:55:32.130Z,-88
2023-03-24T05:58:02.526Z,-86
2023-03-24T06:00:33.594Z,-86
2023-03-24T06:03:01.357Z,-88
2023-03-24T06:05:29.167Z,-86
2023-03-24T06:07:58.959Z,-87
2023-03-24T06:10:27.995Z,-87
2023-03-24T06:12:55.985Z,-84
2023-03-24T06:15:28.118Z,-84
2023-03-24T06:17:55.472Z,-85
2023-03-24T06:20:22.655Z,-84
2023-03-24T06:22:49.966Z,-85
2023-03-24T06:25:20.408Z,-86
2023-03-24T06:27:49.806Z,-85
2023-03-24T06:30:18.142Z,-86
2023-03-24T06:32:48.264Z,-85
2023-03-24T06:35:16.182Z,-86
2023-03-24T06:37:43.083Z,-86
2023-03-24T06:40:15.768Z,-85
2023-03-24T06:42:42.440Z,-85
2023-03-24T06:45:09.866Z,-85
2023-03-24T06:47:36.711Z,-85
2023-03-24T06:50:04.242Z,-84
2023-03-24T06:52:31.097Z,-85
2023-03-24T06:54:58.380Z,-86
2023-03-24T06:57:25.034Z,-87
2023-03-24T06:59:51.622Z,-86
2023-03-24T07:02:18.621Z,-86
2023-03-24T07:04:46.000Z,-86
2023-03-24T07:07:44.877Z,-83
2023-03-24T07:09:59.966Z,-84
2023-03-24T07:12:26.753Z,-81
2023-03-24T07:14:53.385Z,-85
2023-03-24T07:17:19.990Z,-85
2023-03-24T07:19:46.619Z,-85
2023-03-24T07:22:13.797Z,-83
2023-03-24T07:24:40.803Z,-84
2023-03-24T07:27:08.104Z,-84
2023-03-24T07:29:34.742Z,-85
2023-03-24T07:32:02.362Z,-80
2023-03-24T07:34:29.262Z,-84
2023-03-24T07:36:56.527Z,-81
2023-03-24T07:39:23.815Z,-82
2023-03-24T07:41:50.548Z,-80
2023-03-24T07:44:17.127Z,-85
2023-03-24T07:46:43.832Z,-86
2023-03-24T07:49:18.656Z,-81
2023-03-24T07:51:46.489Z,-82
2023-03-24T07:54:13.125Z,-82
2023-03-24T07:56:40.653Z,-81
2023-03-24T07:59:07.903Z,-81
2023-03-24T08:01:37.108Z,-80
2023-03-24T08:04:06.608Z,-83
2023-03-24T08:06:33.526Z,-82
2023-03-24T08:09:00.211Z,-81
2023-03-24T08:11:27.254Z,-80
2023-03-24T08:13:53.880Z,-82
2023-03-24T08:16:21.944Z,-83
2023-03-24T08:18:48.951Z,-83
2023-03-24T08:21:15.767Z,-82
2023-03-24T08:23:42.955Z,-82
2023-03-24T08:26:10.897Z,-82
2023-03-24T08:28:37.836Z,-82
2023-03-24T08:31:05.147Z,-81
2023-03-24T08:33:32.108Z,-84
2023-03-24T08:36:00.972Z,-83
2023-03-24T08:38:31.162Z,-85
2023-03-24T08:41:02.326Z,-82
2023-03-24T08:43:30.853Z,-83
2023-03-24T08:45:58.867Z,-83
2023-03-24T08:48:26.546Z,-83
2023-03-24T08:50:53.482Z,-84
2023-03-24T08:53:20.802Z,-85
2023-03-24T08:55:48.375Z,-84
2023-03-24T08:58:17.746Z,-83
2023-03-24T09:00:46.560Z,-83
2023-03-24T09:03:18.666Z,-84
2023-03-24T09:05:47.879Z,-83
2023-03-24T09:08:17.773Z,-84
2023-03-24T09:10:47.169Z,-81
2023-03-24T09:13:14.007Z,-83
2023-03-24T09:15:45.438Z,-81
2023-03-24T09:18:12.896Z,-83
2023-03-24T09:20:39.564Z,-83
2023-03-24T09:23:06.611Z,-83
2023-03-24T09:25:33.197Z,-81
2023-03-24T09:28:00.943Z,-86
2023-03-24T09:30:30.097Z,-82
2023-03-24T09:32:59.181Z,-81
2023-03-24T09:35:27.433Z,-82
2023-03-24T09:37:56.600Z,-81
2023-03-24T09:40:31.732Z,-82
2023-03-24T09:43:32.526Z,-82
2023-03-24T09:46:02.082Z,-84
2023-03-24T09:48:39.698Z,-81
2023-03-24T09:51:15.863Z,-84
2023-03-24T09:54:06.644Z,-83
2023-03-24T09:56:36.708Z,-84
2023-03-24T09:59:07.340Z,-80
2023-03-24T10:01:36.530Z,-83
2023-03-24T10:04:05.133Z,-82
2023-03-24T10:06:33.833Z,-82
2023-03-24T10:09:23.638Z,-84
2023-03-24T10:12:00.785Z,-82
2023-03-24T10:14:46.122Z,-82
2023-03-24T10:17:18.839Z,-84
2023-03-24T10:20:07.783Z,-83
2023-03-24T10:22:46.049Z,-81
2023-03-24T10:25:23.439Z,-81
2023-03-24T10:28:03.844Z,-83
2023-03-24T10:30:34.863Z,-83
2023-03-24T10:33:01.508Z,-84
2023-03-24T10:35:42.053Z,-85
2023-03-24T10:38:22.036Z,-85
2023-03-24T10:40:54.252Z,-83
2023-03-24T10:43:23.417Z,-83
2023-03-24T10:45:53.248Z,-82
2023-03-24T10:48:46.040Z,-83
2023-03-24T10:51:16.915Z,-82
2023-03-24T10:53:50.859Z,-82
2023-03-24T10:56:42.119Z,-81
2023-03-24T10:59:28.030Z,-84
2023-03-24T11:02:22.659Z,-83
2023-03-24T11:05:13.106Z,-81
2023-03-24T11:07:42.802Z,-83
2023-03-24T11:10:09.382Z,-82
2023-03-24T11:12:39.131Z,-83
2023-03-24T11:15:23.664Z,-84
2023-03-24T11:17:56.929Z,-82
2023-03-24T11:20:38.617Z,-80
2023-03-24T11:23:11.486Z,-85
2023-03-24T11:25:41.117Z,-80
2023-03-24T11:28:16.772Z,-83
2023-03-24T11:30:51.915Z,-82
2023-03-24T11:33:34.578Z,-83
2023-03-24T11:36:26.296Z,-82
2023-03-24T11:39:13.013Z,-84
2023-03-24T11:41:43.732Z,-84
2023-03-24T11:44:26.063Z,-84
2023-03-24T11:46:57.675Z,-86
2023-03-24T11:49:30.697Z,-83
2023-03-24T11:51:58.226Z,-83
2023-03-24T11:54:32.470Z,-84
2023-03-24T11:57:05.395Z,-82
2023-03-24T11:59:52.335Z,-84
2023-03-24T12:02:18.884Z,-84
2023-03-24T12:05:05.024Z,-82
2023-03-24T12:07:46.528Z,-83
2023-03-24T12:10:19.759Z,-83
2023-03-24T12:13:29.617Z,-83
2023-03-24T12:16:01.936Z,-81
2023-03-24T12:18:40.741Z,-83
2023-03-24T12:21:24.525Z,-83
2023-03-24T12:24:06.225Z,-81
2023-03-24T12:26:35.801Z,-83
2023-03-24T12:29:41.648Z,-81
2023-03-24T12:32:36.586Z,-83
2023-03-24T12:35:18.482Z,-82
2023-03-24T12:37:45.024Z,-84
2023-03-24T12:40:12.057Z,-84
2023-03-24T12:42:46.999Z,-83
2023-03-24T12:45:26.912Z,-85
2023-03-24T12:48:05.857Z,-86
2023-03-24T12:50:54.118Z,-85
2023-03-24T12:53:23.322Z,-85
2023-03-24T12:56:21.257Z,-87
2023-03-24T12:59:04.056Z,-87
2023-03-24T13:01:42.140Z,-84
2023-03-24T13:04:31.210Z,-86
2023-03-24T13:07:14.778Z,-85
2023-03-24T13:09:46.180Z,-87
2023-03-24T13:12:23.695Z,-88
2023-03-24T13:15:05.529Z,-86
2023-03-24T13:17:39.638Z,-87
2023-03-24T13:20:12.675Z,-86
2023-03-24T13:22:40.123Z,-86
2023-03-24T13:25:21.046Z,-85
2023-03-24T13:27:53.871Z,-86
2023-03-24T13:30:31.528Z,-86
2023-03-24T13:33:10.932Z,-86
2023-03-24T13:35:56.541Z,-84
2023-03-24T13:38:36.133Z,-83
2023-03-24T13:41:05.861Z,-85
2023-03-24T13:43:34.159Z,-85
2023-03-24T13:46:04.109Z,-84
2023-03-24T13:48:37.798Z,-88
2023-03-24T13:51:08.978Z,-87
2023-03-24T13:53:59.789Z,-86
2023-03-24T13:56:31.490Z,-87
2023-03-24T13:58:58.060Z,-87
2023-03-24T14:01:33.148Z,-86
2023-03-24T14:04:18.633Z,-88
2023-03-24T14:06:57.027Z,-86
2023-03-24T14:09:35.634Z,-85
2023-03-24T14:12:22.570Z,-87
2023-03-24T14:15:37.230Z,-86
2023-03-24T14:18:37.903Z,-86
2023-03-24T14:21:06.886Z,-86
2023-03-24T14:23:43.106Z,-86
2023-03-24T14:26:29.090Z,-87
2023-03-24T14:29:00.429Z,-85
2023-03-24T14:31:36.386Z,-87
2023-03-24T14:34:17.419Z,-86
2023-03-24T14:36:45.517Z,-87
2023-03-24T14:39:31.107Z,-86
2023-03-24T14:41:59.261Z,-87
2023-03-24T14:44:49.742Z,-86
2023-03-24T14:47:18.891Z,-88
2023-03-24T14:49:47.343Z,-85
2023-03-24T14:52:23.093Z,-87
2023-03-24T14:55:06.043Z,-87
2023-03-24T14:57:39.411Z,-85
2023-03-24T15:00:23.963Z,-85
2023-03-24T15:03:00.898Z,-85
2023-03-24T15:05:29.895Z,-86
2023-03-24T15:08:12.040Z,-84
2023-03-24T15:10:41.667Z,-85
2023-03-24T15:13:32.649Z,-86
2023-03-24T15:16:02.279Z,-86
2023-03-24T15:18:29.058Z,-88
2023-03-24T15:20:55.898Z,-86
2023-03-24T15:23:31.413Z,-85
2023-03-24T15:25:58.155Z,-87
2023-03-24T15:28:29.546Z,-85
2023-03-24T15:30:59.539Z,-86
2023-03-24T15:33:26.517Z,-85
2023-03-24T15:35:58.847Z,-86
2023-03-24T15:38:31.449Z,-87
2023-03-24T15:41:10.058Z,-85
2023-03-24T15:43:44.109Z,-86
2023-03-24T15:46:25.898Z,-85
2023-03-24T15:48:54.332Z,-84
2023-03-24T15:51:51.475Z,-84
2023-03-24T15:54:24.555Z,-86
2023-03-24T15:57:13.475Z,-85
2023-03-24T15:59:46.204Z,-83
2023-03-24T16:02:25.722Z,-83
2023-03-24T16:05:07.859Z,-83
2023-03-24T16:07:37.770Z,-84
2023-03-24T16:10:09.863Z,-83
2023-03-24T16:12:37.163Z,-84
2023-03-24T16:15:05.915Z,-82
2023-03-24T16:17:33.172Z,-83
2023-03-24T16:20:00.164Z,-85
2023-03-24T16:22:27.455Z,-85
2023-03-24T16:24:54.085Z,-85
2023-03-24T16:27:23.347Z,-84
2023-03-24T16:29:50.002Z,-83
2023-03-24T16:32:17.179Z,-84
2023-03-24T16:34:44.211Z,-85
2023-03-24T16:37:10.808Z,-84
2023-03-24T16:39:37.454Z,-82
2023-03-24T16:42:04.154Z,-84
2023-03-24T16:44:31.167Z,-84
2023-03-24T16:46:57.894Z,-83
2023-03-24T16:49:24.890Z,-82
2023-03-24T16:51:52.987Z,-81
2023-03-24T16:54:21.127Z,-83
2023-03-24T16:56:47.950Z,-82
2023-03-24T16:59:15.732Z,-83
2023-03-24T17:01:46.600Z,-82
2023-03-24T17:04:16.612Z,-86
2023-03-24T17:06:49.261Z,-85
2023-03-24T17:09:16.288Z,-83
2023-03-24T17:11:48.170Z,-85
2023-03-24T17:14:14.996Z,-84
2023-03-24T17:16:44.593Z,-84
2023-03-24T17:19:17.066Z,-83
2023-03-24T17:21:51.350Z,-84
2023-03-24T17:24:18.810Z,-84
2023-03-24T17:26:45.367Z,-82
2023-03-24T17:29:13.454Z,-85
2023-03-24T17:31:40.723Z,-83
2023-03-24T17:34:21.459Z,-86
2023-03-24T17:36:50.842Z,-83
2023-03-24T17:39:22.417Z,-82
2023-03-24T17:41:49.188Z,-85
2023-03-24T17:44:18.306Z,-84
2023-03-24T17:46:44.998Z,-85
2023-03-24T17:49:11.674Z,-84
2023-03-24T17:51:38.395Z,-83
2023-03-24T17:54:05.697Z,-84
2023-03-24T17:56:32.664Z,-82
2023-03-24T17:58:59.319Z,-83
2023-03-24T18:01:29.824Z,-84
2023-03-24T18:03:57.516Z,-83
2023-03-24T18:06:24.317Z,-85
2023-03-24T18:08:52.175Z,-85
2023-03-24T18:11:19.259Z,-84
2023-03-24T18:13:46.188Z,-86
2023-03-24T18:16:21.319Z,-86
2023-03-24T18:18:50.489Z,-87
2023-03-24T18:21:18.256Z,-88
2023-03-24T18:23:46.898Z,-86
2023-03-24T18:26:15.407Z,-86
2023-03-24T18:28:42.986Z,-85
2023-03-24T18:31:12.898Z,-85
2023-03-24T18:33:42.982Z,-84
2023-03-24T18:36:10.784Z,-86
2023-03-24T18:38:37.669Z,-85
2023-03-24T18:41:06.910Z,-86
2023-03-24T18:43:37.498Z,-86
2023-03-24T18:46:09.488Z,-86
2023-03-24T18:48:44.204Z,-85
2023-03-24T18:51:11.433Z,-83
2023-03-24T18:53:38.212Z,-83
2023-03-24T18:56:06.523Z,-84
2023-03-24T18:58:33.899Z,-83
2023-03-24T19:01:06.986Z,-85
2023-03-24T19:03:35.816Z,-85
2023-03-24T19:06:07.152Z,-84
2023-03-24T19:08:37.989Z,-84
2023-03-24T19:11:04.994Z,-86
2023-03-24T19:13:31.695Z,-85
2023-03-24T19:15:58.346Z,-85
2023-03-24T19:18:25.834Z,-85
2023-03-24T19:20:57.581Z,-88
2023-03-24T19:23:28.544Z,-85
2023-03-24T19:25:56.350Z,-86
2023-03-24T19:28:24.203Z,-87
2023-03-24T19:30:51.062Z,-84
2023-03-24T19:33:17.713Z,-87
2023-03-24T19:35:47.860Z,-85
2023-03-24T19:38:15.218Z,-84
2023-03-24T19:40:45.151Z,-86
2023-03-24T19:43:11.842Z,-86
2023-03-24T19:45:43.070Z,-84
2023-03-24T19:48:10.671Z,-83
2023-03-24T19:50:37.519Z,-82
2023-03-24T19:53:04.362Z,-86
2023-03-24T19:55:31.550Z,-86
2023-03-24T19:57:59.695Z,-87
2023-03-24T20:00:26.513Z,-86
2023-03-24T20:02:53.745Z,-88
2023-03-24T20:05:20.773Z,-87
2023-03-24T20:07:47.534Z,-89
2023-03-24T20:10:14.180Z,-85
2023-03-24T20:12:41.448Z,-87
2023-03-24T20:15:08.560Z,-88
2023-03-24T20:17:37.704Z,-86
2023-03-24T20:20:07.462Z,-85
2023-03-24T20:22:34.973Z,-86
2023-03-24T20:25:01.611Z,-87
2023-03-24T20:27:28.492Z,-87
2023-03-24T20:29:55.089Z,-83
2023-03-24T20:32:21.672Z,-84
2023-03-24T20:34:49.250Z,-85
2023-03-24T20:37:15.899Z,-85
2023-03-24T20:39:43.690Z,-85
2023-03-24T20:42:11.370Z,-85
2023-03-24T20:44:38.033Z,-84
2023-03-24T20:47:04.747Z,-85
2023-03-24T20:49:32.602Z,-84
2023-03-24T20:51:59.305Z,-85
2023-03-24T20:54:26.194Z,-83
2023-03-24T20:56:52.937Z,-85
2023-03-24T20:59:19.648Z,-84
2023-03-24T21:01:48.795Z,-84
2023-03-24T21:04:17.657Z,-88
2023-03-24T21:06:44.865Z,-83
2023-03-24T21:09:11.785Z,-86
2023-03-24T21:11:38.361Z,-85
2023-03-24T21:14:05.018Z,-85
2023-03-24T21:16:34.186Z,-86
2023-03-24T21:19:03.895Z,-85
2023-03-24T21:21:31.193Z,-86
2023-03-24T21:23:58.239Z,-85
2023-03-24T21:26:25.424Z,-85
2023-03-24T21:28:53.120Z,-84
2023-03-24T21:31:25.537Z,-86
2023-03-24T21:33:56.013Z,-85
2023-03-24T21:36:24.421Z,-82
2023-03-24T21:38:52.232Z,-84
2023-03-24T21:41:19.890Z,-85
2023-03-24T21:43:51.351Z,-85
2023-03-24T21:46:21.921Z,-87
2023-03-24T21:48:51.563Z,-87
2023-03-24T21:51:24.210Z,-87
2023-03-24T21:53:51.947Z,-88
2023-03-24T21:56:20.385Z,-88
2023-03-24T21:58:47.652Z,-86
2023-03-24T22:01:15.444Z,-87
2023-03-24T22:03:42.137Z,-87
2023-03-24T22:06:10.774Z,-87
2023-03-24T22:08:39.188Z,-88
2023-03-24T22:11:06.536Z,-86
2023-03-24T22:13:34.152Z,-84
2023-03-24T22:16:03.125Z,-84
2023-03-24T22:18:32.125Z,-87
2023-03-24T22:21:03.129Z,-82
2023-03-24T22:23:36.190Z,-84
2023-03-24T22:26:08.863Z,-86
2023-03-24T22:28:36.268Z,-83
2023-03-24T22:31:05.199Z,-86
2023-03-24T22:33:32.276Z,-84
2023-03-24T22:36:00.514Z,-87
2023-03-24T22:38:28.012Z,-87
2023-03-24T22:41:01.934Z,-85
2023-03-24T22:43:29.752Z,-85
2023-03-24T22:45:56.810Z,-84
2023-03-24T22:48:24.116Z,-86
2023-03-24T22:50:51.548Z,-85
2023-03-24T22:53:18.172Z,-87
2023-03-24T22:55:45.315Z,-87
2023-03-24T22:58:13.639Z,-86
2023-03-24T23:00:41.520Z,-87
2023-03-24T23:03:08.671Z,-87
2023-03-24T23:05:40.244Z,-84
2023-03-24T23:08:07.725Z,-83
2023-03-24T23:10:34.423Z,-87
2023-03-24T23:13:01.355Z,-86
2023-03-24T23:15:28.002Z,-83
2023-03-24T23:17:54.702Z,-87
2023-03-24T23:20:21.679Z,-86
2023-03-24T23:22:48.338Z,-85
2023-03-24T23:25:15.722Z,-86
2023-03-24T23:27:42.480Z,-85
2023-03-24T23:30:12.125Z,-86
2023-03-24T23:32:41.221Z,-87
2023-03-24T23:35:09.771Z,-87
2023-03-24T23:37:36.802Z,-83
2023-03-24T23:40:15.158Z,-85
2023-03-24T23:42:45.035Z,-85
2023-03-24T23:45:14.974Z,-85
2023-03-24T23:47:42.898Z,-85
2023-03-24T23:50:10.098Z,-88
2023-03-24T23:52:36.964Z,-87
2023-03-24T23:55:04.874Z,-87
2023-03-24T23:57:31.942Z,-84
